Time;durP1;ratioP1;P1;durP2;ratioP2;P2;SDS_P1;SDS_P2;PMS_P1;PMS_P2;Temp;Humidity;BMP_temperature;BMP_pressure;BME280_temperature;BME280_humidity;BME280_pressure;Samples;Min_cycle;Max_cycle;Signal;HPM_P1;HPM_P2
2023/01/07 00:00:59;;;;;;;9.30;6.78;;;;;;;11.17;84.11;101544.34;5008473;28;20520;-91
2023/01/07 00:03:25;;;;;;;9.77;7.63;;;;;;;11.21;83.85;101550.41;5020645;28;20025;-92
2023/01/07 00:05:50;;;;;;;12.32;7.70;;;;;;;11.14;83.72;101536.47;5028326;28;20029;-92
2023/01/07 00:08:15;;;;;;;11.30;7.03;;;;;;;11.23;84.07;101552.06;5009434;28;20062;-93
2023/01/07 00:10:41;;;;;;;16.13;8.07;;;;;;;11.20;83.93;101553.97;5021498;28;20052;-91
2023/01/07 00:13:06;;;;;;;10.75;6.65;;;;;;;11.21;83.97;101550.41;5027114;28;20061;-92
2023/01/07 00:15:31;;;;;;;10.65;7.40;;;;;;;11.14;84.02;101536.47;5028614;28;20033;-91
2023/01/07 00:17:57;;;;;;;8.88;7.03;;;;;;;11.19;84.00;101542.53;5023920;28;20028;-92
2023/01/07 00:20:22;;;;;;;9.73;7.05;;;;;;;11.13;83.90;101539.19;5028014;28;20028;-92
2023/01/07 00:22:49;;;;;;;10.73;6.97;;;;;;;11.06;83.74;101530.59;5029239;28;20104;-91
2023/01/07 00:25:14;;;;;;;9.52;6.90;;;;;;;11.08;83.90;101531.38;5024069;28;20037;-91
2023/01/07 00:27:39;;;;;;;13.60;8.02;;;;;;;11.05;83.77;101536.78;5024572;28;20349;-92
2023/01/07 00:30:05;;;;;;;10.48;6.80;;;;;;;11.08;83.64;101533.16;5027265;28;20061;-92
2023/01/07 00:32:53;;;;;;;8.50;7.28;;;;;;;11.05;84.08;101530.63;5004241;28;20033;-91
2023/01/07 00:35:22;;;;;;;11.15;7.22;;;;;;;10.99;84.01;101519.31;5016909;28;20034;-91
2023/01/07 00:37:52;;;;;;;10.45;7.13;;;;;;;11.06;84.14;101527.94;5006656;28;20036;-91
2023/01/07 00:40:18;;;;;;;9.90;6.80;;;;;;;10.98;84.27;101525.53;5029235;28;20033;-91
2023/01/07 00:42:54;;;;;;;9.13;6.32;;;;;;;11.04;83.70;101531.53;5027918;28;20072;-92
2023/01/07 00:45:24;;;;;;;8.02;6.65;;;;;;;11.01;83.96;101519.28;5023492;28;20075;-92
2023/01/07 00:47:53;;;;;;;10.57;7.03;;;;;;;10.97;84.30;101523.78;5027253;28;20041;-92
2023/01/07 00:50:23;;;;;;;8.82;6.60;;;;;;;10.77;84.82;101509.44;5023569;28;20035;-91
2023/01/07 00:52:49;;;;;;;8.95;6.68;;;;;;;10.82;84.73;101512.78;5023877;28;20496;-92
2023/01/07 00:55:14;;;;;;;8.35;7.28;;;;;;;10.77;84.90;101501.50;5018237;28;20041;-91
2023/01/07 00:57:41;;;;;;;13.52;7.60;;;;;;;10.78;84.71;101490.03;5000500;28;20719;-90
2023/01/07 01:00:08;;;;;;;8.15;7.32;;;;;;;10.73;84.90;101488.38;5027061;28;20067;-91
2023/01/07 01:02:33;;;;;;;10.35;6.38;;;;;;;10.72;85.17;101491.06;5029616;28;20249;-91
2023/01/07 01:04:59;;;;;;;7.80;5.90;;;;;;;10.75;85.00;101484.81;5016353;28;20060;-92
2023/01/07 01:07:24;;;;;;;11.20;7.40;;;;;;;10.84;84.56;101497.75;5008536;28;20033;-91
2023/01/07 01:09:49;;;;;;;8.27;7.13;;;;;;;10.76;84.78;101481.25;5001767;28;20025;-91
2023/01/07 01:12:14;;;;;;;8.90;7.68;;;;;;;10.75;84.96;101482.19;5008991;28;20427;-92
2023/01/07 01:14:40;;;;;;;9.38;7.40;;;;;;;10.76;84.94;101471.53;5010225;28;20116;-91
2023/01/07 01:17:05;;;;;;;10.38;6.25;;;;;;;10.84;84.43;101469.53;5010903;28;20798;-91
2023/01/07 01:19:30;;;;;;;7.85;6.63;;;;;;;10.79;84.40;101467.94;5001877;28;20091;-91
2023/01/07 01:21:56;;;;;;;8.98;6.65;;;;;;;10.83;84.60;101467.81;5022993;28;20033;-91
2023/01/07 01:24:21;;;;;;;8.05;5.97;;;;;;;10.81;84.51;101463.47;5025513;28;20481;-92
2023/01/07 01:26:46;;;;;;;9.70;6.25;;;;;;;10.83;84.20;101464.28;5027375;28;20033;-92
2023/01/07 01:29:12;;;;;;;8.52;6.40;;;;;;;10.80;84.67;101467.88;5011641;28;20385;-91
2023/01/07 01:31:37;;;;;;;9.25;6.65;;;;;;;10.80;84.47;101462.59;5027564;28;20056;-92
2023/01/07 01:34:02;;;;;;;11.43;6.10;;;;;;;10.85;84.08;101471.25;5021113;28;20028;-91
2023/01/07 01:36:27;;;;;;;15.85;6.65;;;;;;;10.80;84.56;101465.25;5025792;28;20041;-91
2023/01/07 01:38:53;;;;;;;8.90;5.95;;;;;;;10.76;84.55;101460.97;5011161;28;20545;-91
2023/01/07 01:41:18;;;;;;;11.52;6.47;;;;;;;10.84;84.24;101469.53;5027107;28;20033;-92
2023/01/07 01:43:44;;;;;;;9.18;6.70;;;;;;;10.89;83.80;101475.53;5011136;28;20036;-91
2023/01/07 01:46:32;;;;;;;11.45;6.50;;;;;;;10.93;83.97;101469.25;5009880;28;20033;-91
2023/01/07 01:49:16;;;;;;;10.18;6.10;;;;;;;10.89;84.18;101472.91;4988260;28;20030;-91
2023/01/07 01:51:47;;;;;;;8.77;6.07;;;;;;;10.76;83.53;101458.31;5008420;28;20021;-92
2023/01/07 01:54:15;;;;;;;9.80;6.25;;;;;;;10.76;84.03;101468.03;5028437;28;20458;-91
2023/01/07 01:56:44;;;;;;;7.82;6.13;;;;;;;10.78;84.11;101477.66;5023422;28;20362;-91
2023/01/07 01:59:15;;;;;;;9.48;5.93;;;;;;;10.83;84.34;101467.81;5010358;28;20052;-92
2023/01/07 02:01:40;;;;;;;8.27;5.80;;;;;;;10.82;84.06;101463.44;5028779;28;20480;-91
2023/01/07 02:04:16;;;;;;;9.60;6.07;;;;;;;10.83;83.88;101466.94;5027385;28;20084;-91
2023/01/07 02:06:49;;;;;;;11.30;6.25;;;;;;;10.78;83.83;101463.56;5007412;28;20041;-90
2023/01/07 02:09:15;;;;;;;10.98;6.70;;;;;;;10.81;84.28;101472.25;5026680;28;20389;-92
2023/01/07 02:12:15;;;;;;;8.73;6.05;;;;;;;10.84;84.26;101466.03;5029548;28;20021;-91
2023/01/07 02:14:40;;;;;;;10.10;5.63;;;;;;;10.86;84.16;101469.47;5017254;28;20500;-91
2023/01/07 02:17:27;;;;;;;9.13;5.87;;;;;;;10.81;84.29;101469.63;5031352;28;20041;-91
2023/01/07 02:20:20;;;;;;;8.07;5.43;;;;;;;10.85;83.66;101462.47;5014847;28;20363;-92
2023/01/07 02:22:53;;;;;;;10.05;5.75;;;;;;;10.76;84.22;101462.75;5011805;28;20033;-91
2023/01/07 02:25:56;;;;;;;7.50;4.93;;;;;;;10.84;83.75;101469.53;5029181;28;20029;-91
2023/01/07 02:28:36;;;;;;;6.57;5.28;;;;;;;10.81;83.81;101460.81;5034676;28;20234;-92
2023/01/07 02:31:29;;;;;;;8.15;5.85;;;;;;;10.80;84.23;101467.88;5023656;28;20040;-91
2023/01/07 02:34:08;;;;;;;11.05;5.38;;;;;;;10.69;84.39;101462.94;5013256;28;20064;-92
2023/01/07 02:36:45;;;;;;;10.27;5.85;;;;;;;10.68;84.11;101453.28;5008586;28;20606;-93
2023/01/07 02:39:42;;;;;;;5.78;4.72;;;;;;;10.70;84.63;101459.38;5027439;28;20017;-91
2023/01/07 02:42:36;;;;;;;6.40;4.65;;;;;;;10.76;84.25;101465.38;5011689;28;20038;-92
2023/01/07 02:45:25;;;;;;;6.50;5.07;;;;;;;10.71;84.35;101461.09;4997471;28;20040;-91
2023/01/07 02:47:55;;;;;;;6.30;4.20;;;;;;;10.72;84.36;101457.56;5024631;28;20530;-92
2023/01/07 02:50:21;;;;;;;8.13;4.35;;;;;;;10.71;84.30;101455.81;5029171;28;20033;-91
2023/01/07 02:52:46;;;;;;;6.80;5.13;;;;;;;10.73;84.67;101454.00;5026398;28;20036;-92
2023/01/07 02:55:31;;;;;;;5.82;4.60;;;;;;;10.72;84.07;101444.34;5010259;28;20138;-91
2023/01/07 02:58:31;;;;;;;8.70;4.90;;;;;;;10.82;84.32;101444.91;5011955;28;20029;-92
2023/01/07 03:01:13;;;;;;;6.28;4.10;;;;;;;10.81;84.39;101447.59;5018903;28;20035;-92
2023/01/07 03:04:04;;;;;;;7.93;4.30;;;;;;;10.88;84.27;101430.63;5028429;28;20025;-92
2023/01/07 03:06:38;;;;;;;5.22;4.10;;;;;;;10.92;83.75;101446.34;5029922;28;20036;-92
2023/01/07 03:09:22;;;;;;;8.93;4.90;;;;;;;10.91;84.20;101449.03;5011627;28;20041;-91
2023/01/07 03:11:58;;;;;;;6.15;4.32;;;;;;;11.03;83.82;101437.19;5023332;28;20025;-91
2023/01/07 03:14:40;;;;;;;12.25;4.72;;;;;;;11.03;83.36;101431.91;5010372;28;20037;-91
2023/01/07 03:17:11;;;;;;;7.13;4.47;;;;;;;11.04;83.21;101415.09;5027751;28;20037;-91
2023/01/07 03:19:41;;;;;;;5.15;3.58;;;;;;;11.13;82.85;101423.59;5029195;28;20472;-91
2023/01/07 03:22:08;;;;;;;6.45;4.47;;;;;;;11.03;83.31;101416.03;5007206;28;20030;-91
2023/01/07 03:24:34;;;;;;;8.85;4.07;;;;;;;11.06;82.94;101408.88;5025750;28;20053;-91
2023/01/07 03:27:03;;;;;;;8.10;4.00;;;;;;;11.16;82.88;101412.94;5029683;28;20037;-91
2023/01/07 03:29:31;;;;;;;5.28;3.47;;;;;;;11.14;82.50;101403.28;5029294;28;20461;-91
2023/01/07 03:32:11;;;;;;;8.15;3.78;;;;;;;11.18;82.88;101407.56;5030418;28;20026;-91
2023/01/07 03:34:38;;;;;;;6.78;3.50;;;;;;;11.03;82.69;101384.28;5028361;28;20055;-91
2023/01/07 03:37:10;;;;;;;4.97;3.75;;;;;;;11.29;81.71;101383.41;5028602;28;20036;-90
2023/01/07 03:39:37;;;;;;;;;;;;;;;11.29;81.98;101401.94;5004131;28;20033;-91
2023/01/07 03:44:55;;;;;;;4.78;3.17;;;;;;;11.15;81.99;101386.53;5009748;28;20129;-91
2023/01/07 03:47:21;;;;;;;7.07;3.67;;;;;;;11.17;82.63;101400.56;4992311;28;20348;-92
2023/01/07 03:49:46;;;;;;;5.47;3.63;;;;;;;11.11;82.27;101392.84;5004312;28;20109;-91
2023/01/07 03:52:12;;;;;;;5.85;3.38;;;;;;;11.13;82.45;101389.19;4982226;28;20453;-92
2023/01/07 03:54:37;;;;;;;4.95;3.40;;;;;;;11.15;82.18;101387.38;4990602;28;20033;-92
2023/01/07 03:57:02;;;;;;;5.75;3.65;;;;;;;11.15;82.28;101370.66;5007905;28;20549;-91
2023/01/07 03:59:28;;;;;;;7.53;3.35;;;;;;;11.17;81.90;101374.97;4992784;28;20029;-91
2023/01/07 04:01:53;;;;;;;4.57;3.00;;;;;;;11.12;82.32;101366.31;4994019;28;20120;-92
2023/01/07 04:04:18;;;;;;;7.70;3.40;;;;;;;11.11;81.75;101369.88;5010336;28;20075;-91
2023/01/07 04:06:44;;;;;;;5.82;3.38;;;;;;;11.14;82.01;101376.84;5011055;28;20037;-91
2023/01/07 04:09:11;;;;;;;4.57;3.20;;;;;;;11.13;81.63;101372.47;4993240;28;20481;-92
2023/01/07 04:11:36;;;;;;;4.50;3.10;;;;;;;11.23;81.67;101365.94;5009579;28;20479;-91
2023/01/07 04:14:01;;;;;;;3.47;3.13;;;;;;;11.16;81.97;101349.41;5010578;28;20054;-91
2023/01/07 04:16:26;;;;;;;5.85;3.13;;;;;;;11.15;81.58;101350.34;4993631;28;20025;-91
2023/01/07 04:18:52;;;;;;;5.40;3.22;;;;;;;11.12;81.66;101358.38;5010613;28;20030;-91
2023/01/07 04:21:17;;;;;;;4.22;2.80;;;;;;;11.17;81.62;101348.50;4989312;28;20061;-92
2023/01/07 04:23:42;;;;;;;3.92;2.60;;;;;;;11.15;81.62;101350.34;5008483;28;20037;-92
2023/01/07 04:26:08;;;;;;;2.92;2.60;;;;;;;11.13;81.23;101336.28;5008612;28;20026;-91
2023/01/07 04:28:33;;;;;;;4.57;3.20;;;;;;;11.17;81.45;101337.91;5008565;28;20041;-91
2023/01/07 04:30:59;;;;;;;3.05;2.85;;;;;;;11.10;81.46;101328.47;4993108;28;20536;-91
2023/01/07 04:33:24;;;;;;;5.70;2.80;;;;;;;11.12;81.59;101320.47;4986363;28;20029;-92
2023/01/07 04:35:50;;;;;;;5.15;3.30;;;;;;;11.00;81.72;101316.44;5009942;28;20026;-91
2023/01/07 04:38:15;;;;;;;4.85;2.90;;;;;;;11.13;81.15;101333.63;4991701;28;20026;-91
2023/01/07 04:40:40;;;;;;;6.15;2.17;;;;;;;10.99;81.25;101320.88;4994984;28;20521;-91
2023/01/07 04:43:05;;;;;;;4.78;2.63;;;;;;;10.97;81.05;101321.88;5023935;28;20041;-91
2023/01/07 04:45:31;;;;;;;6.78;3.13;;;;;;;10.92;81.85;101306.16;5029107;28;20057;-92
2023/01/07 04:47:56;;;;;;;4.60;2.63;;;;;;;10.94;81.30;101320.16;5008195;28;20473;-91
2023/01/07 04:50:22;;;;;;;3.00;2.50;;;;;;;10.88;81.42;101316.88;5022222;28;20052;-91
2023/01/07 04:52:48;;;;;;;5.03;2.80;;;;;;;10.91;81.24;101322.03;5001238;28;20026;-91
2023/01/07 04:55:13;;;;;;;5.00;2.88;;;;;;;10.82;81.93;101303.84;5027443;28;20060;-91
2023/01/07 04:57:38;;;;;;;4.07;2.75;;;;;;;10.90;81.49;101315.03;5009975;28;20104;-91
2023/01/07 05:00:05;;;;;;;3.92;2.40;;;;;;;10.87;81.10;101315.16;5028676;28;20072;-91
2023/01/07 05:02:30;;;;;;;5.85;2.30;;;;;;;10.87;81.04;101316.03;5026589;28;20025;-92
2023/01/07 05:04:56;;;;;;;3.08;2.40;;;;;;;10.83;81.09;101305.59;5007666;28;20029;-91
2023/01/07 05:07:21;;;;;;;4.03;2.40;;;;;;;10.83;80.98;101297.66;5010439;28;20460;-91
2023/01/07 05:09:46;;;;;;;4.57;2.42;;;;;;;10.90;80.82;101294.72;5026557;28;20029;-91
2023/01/07 05:12:12;;;;;;;4.40;2.65;;;;;;;10.86;80.81;101293.09;5009747;28;20053;-91
2023/01/07 05:14:37;;;;;;;3.88;2.58;;;;;;;10.87;80.80;101294.84;5004572;28;20033;-90
2023/01/07 05:17:02;;;;;;;3.78;2.50;;;;;;;10.91;80.21;101298.25;5028723;28;20576;-91
2023/01/07 05:19:27;;;;;;;3.97;1.92;;;;;;;10.79;80.90;101285.44;5028668;28;20036;-91
2023/01/07 05:21:53;;;;;;;3.10;2.53;;;;;;;10.81;80.42;101286.25;5021584;28;20393;-91
2023/01/07 05:24:18;;;;;;;3.92;2.30;;;;;;;10.82;80.70;101287.97;5026048;28;20041;-92
2023/01/07 05:26:43;;;;;;;5.10;2.30;;;;;;;10.78;80.30;101283.72;5028350;28;20032;-91
2023/01/07 05:29:09;;;;;;;4.32;2.10;;;;;;;10.73;80.54;101276.81;5028376;28;20037;-91
2023/01/07 05:31:34;;;;;;;3.85;2.20;;;;;;;10.82;80.29;101285.31;5026847;28;20033;-91
2023/01/07 05:34:00;;;;;;;4.40;2.40;;;;;;;10.72;80.21;101267.16;5002271;28;20038;-92
2023/01/07 05:36:25;;;;;;;3.17;2.10;;;;;;;10.71;79.83;101277.75;5019601;28;20026;-91
2023/01/07 05:38:51;;;;;;;4.32;2.03;;;;;;;10.79;79.85;101281.03;5026125;28;20048;-91
2023/01/07 05:41:16;;;;;;;2.60;2.40;;;;;;;10.73;79.52;101279.47;5022850;28;20036;-91
2023/01/07 05:43:41;;;;;;;2.58;2.15;;;;;;;10.80;79.49;101293.31;5024295;28;20059;-91
2023/01/07 05:46:06;;;;;;;5.65;2.50;;;;;;;10.81;79.00;101294.19;5006825;28;20030;-91
2023/01/07 05:48:32;;;;;;;2.35;1.63;;;;;;;10.88;79.23;101275.41;5002977;28;20057;-91
2023/01/07 05:50:57;;;;;;;2.88;2.00;;;;;;;10.98;78.31;101279.47;5023085;28;20030;-92
2023/01/07 05:53:22;;;;;;;2.63;1.77;;;;;;;10.97;78.53;101264.53;5005639;28;20604;-92
2023/01/07 05:55:47;;;;;;;3.72;2.00;;;;;;;10.95;78.33;101265.47;5025058;28;20032;-92
2023/01/07 05:58:13;;;;;;;2.92;2.10;;;;;;;10.99;78.15;101267.97;5024869;28;20299;-91
2023/01/07 06:00:38;;;;;;;3.47;1.92;;;;;;;10.93;78.05;101259.38;5006742;28;20033;-91
2023/01/07 06:03:04;;;;;;;2.42;1.95;;;;;;;11.08;78.15;101280.00;5008331;28;20401;-92
2023/01/07 06:05:31;;;;;;;2.15;1.65;;;;;;;11.03;77.01;101273.16;5029693;28;20027;-92
2023/01/07 06:07:56;;;;;;;4.10;2.25;;;;;;;11.04;76.99;101259.88;5007325;28;20064;-91
2023/01/07 06:10:22;;;;;;;2.38;1.67;;;;;;;11.10;77.01;101253.50;5009789;28;20138;-91
2023/01/07 06:12:47;;;;;;;5.97;1.90;;;;;;;10.99;76.42;101245.94;5027690;28;20025;-92
2023/01/07 06:15:12;;;;;;;1.70;1.60;;;;;;;11.11;76.68;101248.16;5029266;28;20048;-92
2023/01/07 06:17:38;;;;;;;2.15;1.70;;;;;;;11.06;76.42;101243.97;5011050;28;20022;-92
2023/01/07 06:20:04;;;;;;;3.45;1.60;;;;;;;11.07;75.83;101246.53;5010801;28;20068;-91
2023/01/07 06:22:29;;;;;;;1.90;1.52;;;;;;;11.07;76.08;101235.94;5028426;28;20109;-90
2023/01/07 06:24:55;;;;;;;3.30;1.70;;;;;;;11.08;75.01;101248.25;5000842;28;20407;-91
2023/01/07 06:27:20;;;;;;;3.45;1.38;;;;;;;11.09;74.52;101241.19;5026015;28;20025;-91
2023/01/07 06:29:45;;;;;;;1.45;1.35;;;;;;;11.13;74.75;101233.06;5010591;28;20519;-91
2023/01/07 06:32:11;;;;;;;1.80;1.70;;;;;;;11.06;74.55;101223.66;5002642;28;20481;-91
2023/01/07 06:34:36;;;;;;;3.42;1.48;;;;;;;11.08;75.26;101229.72;5026762;28;20029;-91
2023/01/07 06:37:01;;;;;;;2.58;1.42;;;;;;;11.06;74.76;101226.28;5008354;28;20028;-92
2023/01/07 06:39:26;;;;;;;2.03;1.38;;;;;;;11.06;74.40;101210.41;5022865;28;20030;-91
2023/01/07 06:41:52;;;;;;;3.70;1.60;;;;;;;11.12;74.79;101215.47;5026911;28;20046;-91
2023/01/07 06:44:17;;;;;;;1.30;1.20;;;;;;;11.10;74.38;101212.03;5026926;28;20029;-92
2023/01/07 06:46:42;;;;;;;1.50;1.40;;;;;;;11.09;74.49;101222.66;5027651;28;20141;-90
2023/01/07 06:49:07;;;;;;;1.90;1.40;;;;;;;11.11;74.78;101212.91;5008635;28;20075;-91
2023/01/07 06:51:33;;;;;;;1.55;1.33;;;;;;;11.12;74.03;101244.59;5024934;28;20037;-91
2023/01/07 06:53:58;;;;;;;1.65;1.33;;;;;;;11.04;73.94;101206.94;5025352;28;20025;-92
2023/01/07 06:56:23;;;;;;;1.33;1.17;;;;;;;11.04;74.82;101220.19;5007882;28;20045;-92
2023/01/07 06:58:49;;;;;;;2.65;1.90;;;;;;;11.02;74.20;101203.50;5006600;28;20495;-92
2023/01/07 07:01:14;;;;;;;1.67;1.48;;;;;;;11.04;74.50;101200.78;5010084;28;20033;-91
2023/01/07 07:03:39;;;;;;;2.58;1.40;;;;;;;11.04;74.67;101192.84;5007713;28;20086;-91
2023/01/07 07:06:05;;;;;;;3.47;1.85;;;;;;;11.07;73.82;101206.84;5013223;28;20037;-92
2023/01/07 07:08:31;;;;;;;2.75;1.67;;;;;;;11.08;73.85;101200.63;5028885;28;20037;-92
2023/01/07 07:10:56;;;;;;;3.25;1.42;;;;;;;11.02;74.29;101200.00;5006072;28;20048;-92
2023/01/07 07:13:21;;;;;;;3.17;1.65;;;;;;;11.05;74.27;101186.63;5030172;28;20032;-92
2023/01/07 07:15:48;;;;;;;1.35;1.17;;;;;;;11.05;73.96;101200.75;5030474;28;20026;-91
2023/01/07 07:18:13;;;;;;;2.50;1.40;;;;;;;10.95;73.90;101175.53;5010472;28;20542;-91
2023/01/07 07:20:39;;;;;;;1.17;1.10;;;;;;;10.96;73.92;101187.88;5029423;28;20029;-92
2023/01/07 07:23:04;;;;;;;1.45;1.05;;;;;;;10.97;73.01;101176.34;5028232;28;20424;-92
2023/01/07 07:25:29;;;;;;;2.65;1.25;;;;;;;10.92;73.47;101176.53;5031783;28;20022;-91
2023/01/07 07:27:55;;;;;;;3.55;1.33;;;;;;;10.89;73.50;101167.81;5029197;28;20029;-91
2023/01/07 07:30:20;;;;;;;1.67;1.40;;;;;;;10.99;72.97;101185.09;5008795;28;20120;-91
2023/01/07 07:32:45;;;;;;;2.10;1.40;;;;;;;10.90;73.51;101178.34;5006276;28;20409;-92
2023/01/07 07:35:11;;;;;;;2.38;1.40;;;;;;;10.94;73.10;101182.59;5006778;28;20048;-92
2023/01/07 07:37:37;;;;;;;2.60;1.40;;;;;;;10.93;73.65;101177.38;5031287;28;20424;-91
2023/01/07 07:40:04;;;;;;;1.70;1.45;;;;;;;10.97;72.76;101179.00;5028775;28;20029;-91
2023/01/07 07:42:29;;;;;;;2.05;1.33;;;;;;;10.95;72.80;101173.75;5008978;28;20129;-91
2023/01/07 07:44:54;;;;;;;1.38;1.08;;;;;;;11.08;73.32;101181.25;5029984;28;20459;-91
2023/01/07 07:47:20;;;;;;;3.47;1.80;;;;;;;10.87;73.16;101156.44;5028061;28;20068;-92
2023/01/07 07:49:45;;;;;;;2.42;1.20;;;;;;;10.90;73.63;101165.13;5005310;28;20025;-91
2023/01/07 07:52:10;;;;;;;1.92;1.30;;;;;;;10.89;73.25;101159.88;5028703;28;20121;-91
2023/01/07 07:54:36;;;;;;;2.28;1.48;;;;;;;10.88;72.50;101152.88;5027678;28;20029;-91
2023/01/07 07:57:02;;;;;;;2.17;1.48;;;;;;;11.01;73.65;101164.75;5011039;28;20033;-91
2023/01/07 07:59:28;;;;;;;2.08;1.50;;;;;;;10.96;72.24;101164.91;5027188;28;20067;-91
2023/01/07 08:01:53;;;;;;;1.65;1.30;;;;;;;10.99;72.61;101151.56;5021835;28;20037;-92
2023/01/07 08:04:19;;;;;;;1.95;1.75;;;;;;;10.99;72.78;101151.56;5012883;28;20025;-91
2023/01/07 08:06:44;;;;;;;3.05;1.70;;;;;;;11.05;72.93;101155.78;5031225;28;20037;-91
2023/01/07 08:09:09;;;;;;;3.00;1.45;;;;;;;11.02;72.21;101153.25;5029511;28;20030;-91
2023/01/07 08:11:34;;;;;;;2.45;1.50;;;;;;;11.00;72.26;101136.53;5029130;28;20220;-91
2023/01/07 08:14:00;;;;;;;2.17;1.33;;;;;;;10.99;72.11;101135.69;5012085;28;20116;-90
2023/01/07 08:16:28;;;;;;;1.70;1.40;;;;;;;11.02;72.34;101141.78;5012570;28;20051;-91
2023/01/07 08:18:53;;;;;;;1.98;1.60;;;;;;;10.96;71.81;101145.53;5030269;28;20112;-92
2023/01/07 08:21:18;;;;;;;2.42;1.70;;;;;;;11.08;72.40;101147.72;5029680;28;21216;-92
2023/01/07 08:23:44;;;;;;;1.63;1.30;;;;;;;11.01;72.13;101140.94;5028848;28;20931;-92
2023/01/07 08:26:09;;;;;;;1.52;1.40;;;;;;;11.27;70.20;101141.72;5029124;28;20039;-91
2023/01/07 08:28:36;;;;;;;2.92;1.40;;;;;;;11.26;71.47;101150.59;5024790;28;20088;-91
2023/01/07 08:31:06;;;;;;;2.45;1.50;;;;;;;11.18;70.63;101140.28;5020035;28;20018;-92
2023/01/07 08:33:36;;;;;;;1.85;1.10;;;;;;;11.10;71.09;101135.31;5025954;28;20068;-91
2023/01/07 08:36:05;;;;;;;1.50;1.15;;;;;;;11.18;70.81;101129.69;5030095;28;20131;-91
2023/01/07 08:38:31;;;;;;;2.15;1.27;;;;;;;11.20;70.49;101136.69;5028787;28;20025;-91
2023/01/07 08:40:57;;;;;;;1.42;1.20;;;;;;;11.24;70.38;101135.63;5010660;28;20029;-91
2023/01/07 08:43:23;;;;;;;1.58;1.38;;;;;;;11.23;69.74;101133.03;5026117;28;20053;-90
2023/01/07 08:45:50;;;;;;;1.83;1.48;;;;;;;11.30;70.61;101128.38;5008191;28;20030;-91
2023/01/07 08:48:16;;;;;;;1.10;1.00;;;;;;;11.28;70.00;101125.78;5011061;28;20025;-91
2023/01/07 08:50:41;;;;;;;1.85;1.27;;;;;;;11.22;69.70;101112.78;5007832;28;20018;-92
2023/01/07 08:53:06;;;;;;;2.17;1.20;;;;;;;11.40;69.88;101121.81;5028471;28;20025;-91
2023/01/07 08:55:32;;;;;;;1.50;1.27;;;;;;;11.27;69.64;101112.59;5028742;28;20059;-92
2023/01/07 08:57:57;;;;;;;1.88;1.35;;;;;;;11.24;68.93;101116.25;5008605;28;20040;-91
2023/01/07 09:00:23;;;;;;;1.83;1.08;;;;;;;11.30;70.13;101117.78;5008312;28;20704;-91
2023/01/07 09:02:48;;;;;;;1.08;1.02;;;;;;;11.29;70.07;101119.59;5027628;28;20033;-91
2023/01/07 09:05:14;;;;;;;1.98;1.35;;;;;;;11.34;68.49;101117.63;5027393;28;20480;-91
2023/01/07 09:07:39;;;;;;;2.15;1.42;;;;;;;11.45;69.49;101122.47;5007853;28;20022;-91
2023/01/07 09:10:05;;;;;;;2.40;1.33;;;;;;;11.65;68.03;101106.66;5027210;28;20075;-91
2023/01/07 09:12:31;;;;;;;1.40;1.30;;;;;;;11.38;67.61;101099.84;5026874;28;20079;-91
2023/01/07 09:14:56;;;;;;;2.10;1.20;;;;;;;11.37;68.82;101096.31;5005789;28;20033;-91
2023/01/07 09:17:22;;;;;;;2.47;1.08;;;;;;;11.43;69.38;101101.38;5003311;28;20084;-91
2023/01/07 09:19:47;;;;;;;1.30;1.20;;;;;;;11.43;68.77;101105.81;5025757;28;20481;-91
2023/01/07 09:22:12;;;;;;;1.45;1.20;;;;;;;11.43;69.17;101098.72;5025867;28;20112;-91
2023/01/07 09:24:38;;;;;;;1.50;1.25;;;;;;;11.39;69.91;101080.38;5027054;28;20117;-90
2023/01/07 09:27:03;;;;;;;1.40;1.05;;;;;;;11.42;69.24;101085.53;5010549;28;20033;-91
2023/01/07 09:29:28;;;;;;;2.65;1.33;;;;;;;11.38;69.03;101078.66;5021152;28;20017;-91
2023/01/07 09:31:53;;;;;;;1.83;1.40;;;;;;;11.49;68.42;101092.31;5003355;28;20124;-91
2023/01/07 09:34:19;;;;;;;2.13;0.98;;;;;;;11.49;68.67;101076.44;5006484;28;20052;-91
2023/01/07 09:36:44;;;;;;;1.98;1.13;;;;;;;11.61;68.20;101089.19;5027060;28;20393;-90
2023/01/07 09:39:10;;;;;;;1.20;1.10;;;;;;;11.57;69.04;101079.66;5011454;28;20018;-91
2023/01/07 09:41:57;;;;;;;1.40;1.30;;;;;;;11.68;68.79;101084.50;5028114;28;20029;-91
2023/01/07 09:44:41;;;;;;;0.80;0.80;;;;;;;11.62;67.70;101076.81;5022656;28;20152;-90
2023/01/07 09:47:08;;;;;;;2.03;1.10;;;;;;;11.69;68.17;101071.19;5017505;28;20543;-91
2023/01/07 09:49:34;;;;;;;1.00;0.95;;;;;;;11.59;68.33;101048.66;5026134;28;20029;-91
2023/01/07 09:52:07;;;;;;;1.50;1.00;;;;;;;11.72;66.85;101070.22;5025066;28;20104;-91
2023/01/07 09:54:35;;;;;;;1.98;1.20;;;;;;;11.94;66.96;101055.19;5009383;28;20493;-91
2023/01/07 09:57:02;;;;;;;2.30;1.10;;;;;;;13.17;63.38;101061.13;5005480;28;20389;-90
2023/01/07 09:59:28;;;;;;;1.13;1.05;;;;;;;14.17;60.66;101040.25;5007064;28;20026;-92
2023/01/07 10:02:04;;;;;;;1.98;1.25;;;;;;;14.53;58.76;101043.69;5024806;28;21235;-92
2023/01/07 10:04:52;;;;;;;0.80;0.80;;;;;;;14.88;57.95;101038.28;5026813;28;20026;-93
2023/01/07 10:07:39;;;;;;;0.85;0.70;;;;;;;15.25;54.84;101037.09;5009115;28;20033;-90
2023/01/07 10:10:34;;;;;;;1.75;1.00;;;;;;;15.74;54.29;101012.94;5023807;28;20063;-90
2023/01/07 10:13:33;;;;;;;2.00;0.90;;;;;;;15.75;53.41;101024.47;5024709;28;20029;-90
2023/01/07 10:16:17;;;;;;;0.90;0.90;;;;;;;15.97;53.22;101018.72;5025997;28;20048;-90
2023/01/07 10:18:53;;;;;;;2.50;1.02;;;;;;;15.21;54.72;101014.22;4996038;28;20048;-90
2023/01/07 10:21:37;;;;;;;0.80;0.80;;;;;;;15.11;55.62;100996.16;5024905;28;20029;-90
2023/01/07 10:24:09;;;;;;;1.23;1.10;;;;;;;15.46;54.81;100994.16;5010816;28;20047;-90
2023/01/07 10:26:39;;;;;;;1.45;0.88;;;;;;;15.35;54.43;100985.94;5027752;28;20037;-90
2023/01/07 10:29:14;;;;;;;1.35;0.90;;;;;;;15.69;54.69;100983.03;5023689;28;20245;-90
2023/01/07 10:31:40;;;;;;;1.00;0.90;;;;;;;15.92;52.56;100968.34;5027008;28;20025;-91
2023/01/07 10:34:14;;;;;;;1.52;1.00;;;;;;;16.16;51.93;100966.00;5014723;28;20029;-90
2023/01/07 10:36:52;;;;;;;1.55;0.95;;;;;;;16.29;50.05;100964.28;5030791;28;20026;-91
2023/01/07 10:39:40;;;;;;;0.77;0.77;;;;;;;16.27;51.98;100968.88;5032791;28;20034;-90
2023/01/07 10:42:24;;;;;;;1.27;0.90;;;;;;;15.81;53.40;100954.81;5028374;28;20128;-90
2023/01/07 10:44:55;;;;;;;1.25;0.90;;;;;;;15.36;52.27;100943.22;5005394;28;20037;-90
2023/01/07 10:47:40;;;;;;;0.87;0.87;;;;;;;15.81;50.49;100944.16;5007468;28;20095;-90
2023/01/07 10:50:18;;;;;;;2.58;0.90;;;;;;;16.28;50.98;100938.56;5015034;28;20501;-91
2023/01/07 10:53:30;;;;;;;0.65;0.65;;;;;;;16.54;49.80;100936.06;5013031;28;20051;-90
2023/01/07 10:56:03;;;;;;;0.60;0.60;;;;;;;16.52;50.90;100932.63;5004850;28;20041;-91
2023/01/07 10:58:39;;;;;;;;;;;;;;;16.70;50.30;100927.94;5027008;28;20026;-90
2023/01/07 11:01:06;;;;;;;0.82;0.82;;;;;;;16.46;48.69;100935.66;5028539;28;20269;-91
2023/01/07 11:03:32;;;;;;;0.98;0.63;;;;;;;15.89;48.08;100919.66;5004039;28;20037;-91
2023/01/07 11:06:03;;;;;;;0.73;0.70;;;;;;;16.06;49.16;100916.84;5022084;28;20089;-90
2023/01/07 11:08:37;;;;;;;0.90;0.90;;;;;;;15.69;50.02;100904.91;5029863;28;20036;-91
2023/01/07 11:11:03;;;;;;;1.00;0.85;;;;;;;15.41;48.53;100897.66;5023258;28;20064;-91
2023/01/07 11:13:35;;;;;;;2.97;1.05;;;;;;;15.69;50.86;100905.75;5008923;28;20021;-90
2023/01/07 11:16:09;;;;;;;1.02;0.90;;;;;;;15.48;51.94;100907.88;5027721;28;20025;-91
2023/01/07 11:18:37;;;;;;;0.80;0.80;;;;;;;15.52;50.77;100905.88;5004294;28;20117;-92
2023/01/07 11:21:02;;;;;;;0.82;0.77;;;;;;;15.29;51.73;100892.13;5029830;28;20465;-91
2023/01/07 11:23:35;;;;;;;1.13;0.80;;;;;;;15.03;51.87;100903.44;5012574;28;20036;-90
2023/01/07 11:26:15;;;;;;;1.73;0.85;;;;;;;14.09;52.58;100888.28;5031393;28;20021;-90
2023/01/07 11:28:48;;;;;;;0.90;0.90;;;;;;;13.83;54.28;100887.00;5022757;28;20025;-90
2023/01/07 11:31:13;;;;;;;1.17;1.10;;;;;;;13.95;54.62;100860.66;5033361;28;20049;-93
2023/01/07 11:33:45;;;;;;;1.00;0.90;;;;;;;14.08;53.15;100876.75;5028187;28;20053;-93
2023/01/07 11:36:11;;;;;;;2.58;1.20;;;;;;;14.57;54.02;100870.59;5009974;28;20026;-94